Time;durP1;ratioP1;P1;durP2;ratioP2;P2;SDS_P1;SDS_P2;PMS_P1;PMS_P2;Temp;Humidity;BMP_temperature;BMP_pressure;BME280_temperature;BME280_humidity;BME280_pressure;Samples;Min_cycle;Max_cycle;Signal;HPM_P1;HPM_P2
2022/03/07 00:00:38;;;;;;;19.73;12.65;;;;;;;-0.50;100.00;92706.47;4972949;28;20398;-83
2022/03/07 00:03:05;;;;;;;18.90;12.07;;;;;;;-0.25;100.00;92723.38;4972826;28;20073;-84
2022/03/07 00:05:32;;;;;;;17.65;11.90;;;;;;;-0.25;100.00;92724.19;4972594;28;20061;-83
2022/03/07 00:08:00;;;;;;;18.83;11.75;;;;;;;-0.23;100.00;92717.22;4973013;28;20047;-83
2022/03/07 00:10:27;;;;;;;17.15;10.18;;;;;;;-0.64;100.00;92682.66;4972961;28;20050;-84
2022/03/07 00:12:54;;;;;;;16.27;10.60;;;;;;;-0.54;100.00;92712.78;4976351;28;20134;-84
2022/03/07 00:15:21;;;;;;;16.70;11.52;;;;;;;-0.39;100.00;92715.47;4992029;28;20133;-83
2022/03/07 00:17:48;;;;;;;17.55;11.75;;;;;;;-0.34;100.00;92709.97;4991997;28;20049;-83
2022/03/07 00:20:15;;;;;;;14.45;9.75;;;;;;;-0.33;100.00;92716.59;4991901;28;20547;-83
2022/03/07 00:22:42;;;;;;;16.75;10.48;;;;;;;-0.32;100.00;92720.72;4991864;28;20499;-83
2022/03/07 00:25:11;;;;;;;17.20;10.35;;;;;;;-0.24;100.00;92717.41;4991644;28;20042;-83
2022/03/07 00:27:38;;;;;;;16.45;9.98;;;;;;;-0.15;100.00;92701.31;4991928;28;20137;-84
2022/03/07 00:30:06;;;;;;;19.02;10.40;;;;;;;-0.17;100.00;92693.13;4991825;28;20051;-83
2022/03/07 00:32:33;;;;;;;14.98;9.13;;;;;;;-0.51;100.00;92672.09;4991646;28;20092;-83
2022/03/07 00:35:00;;;;;;;16.13;10.07;;;;;;;-0.32;100.00;92718.19;4991599;28;20058;-83
2022/03/07 00:37:27;;;;;;;18.58;10.43;;;;;;;-0.36;100.00;92691.66;4991686;28;20058;-83
2022/03/07 00:39:54;;;;;;;22.83;12.52;;;;;;;-0.34;100.00;92694.81;4991718;28;20134;-83
2022/03/07 00:42:22;;;;;;;16.55;9.70;;;;;;;-0.12;100.00;92706.06;4991261;28;20101;-84
2022/03/07 00:44:49;;;;;;;17.95;9.32;;;;;;;-0.15;100.00;92708.88;4991640;28;20055;-83
2022/03/07 00:47:16;;;;;;;16.88;10.05;;;;;;;-0.34;100.00;92707.44;4991446;28;20054;-84
2022/03/07 00:49:42;;;;;;;14.32;9.32;;;;;;;-0.31;100.00;92704.63;4991452;28;20576;-83
2022/03/07 00:52:09;;;;;;;13.82;8.13;;;;;;;-0.42;100.00;92698.91;4991508;28;20053;-84
2022/03/07 00:54:36;;;;;;;15.05;8.95;;;;;;;-0.49;100.00;92703.00;4991505;28;20073;-83
2022/03/07 00:57:03;;;;;;;15.43;9.18;;;;;;;-0.56;100.00;92681.84;4991529;28;20109;-83
2022/03/07 00:59:31;;;;;;;17.23;9.52;;;;;;;-0.27;100.00;92698.31;4991429;28;20142;-83
2022/03/07 01:01:58;;;;;;;19.10;12.38;;;;;;;-0.22;100.00;92690.28;4991392;28;20050;-83
2022/03/07 01:04:25;;;;;;;15.85;10.65;;;;;;;-0.13;100.00;92696.91;4991543;28;20050;-84
2022/03/07 01:06:52;;;;;;;18.30;10.65;;;;;;;-0.11;100.00;92687.44;4991603;28;20077;-84
2022/03/07 01:09:19;;;;;;;15.63;10.20;;;;;;;-0.14;100.00;92683.47;4991523;28;20051;-83
2022/03/07 01:11:45;;;;;;;15.77;8.93;;;;;;;-0.12;100.00;92683.34;4991422;28;20555;-84
2022/03/07 01:14:12;;;;;;;16.80;10.50;;;;;;;-0.11;100.00;92686.63;4991444;28;20061;-84
2022/03/07 01:16:40;;;;;;;16.83;10.23;;;;;;;-0.17;100.00;92688.06;4991233;28;20109;-83
2022/03/07 01:19:07;;;;;;;14.65;9.65;;;;;;;-0.16;100.00;92682.06;4991441;28;20053;-83
2022/03/07 01:21:34;;;;;;;15.13;10.00;;;;;;;-0.34;100.00;92651.91;4991285;28;20500;-83
2022/03/07 01:24:01;;;;;;;15.98;9.98;;;;;;;-0.35;100.00;92671.34;4991191;28;20100;-84
2022/03/07 01:26:27;;;;;;;18.15;11.25;;;;;;;-0.52;100.00;92672.25;4991076;28;20492;-83
2022/03/07 01:28:54;;;;;;;17.92;11.07;;;;;;;-0.56;100.00;92667.50;4991015;28;20046;-83
2022/03/07 01:31:21;;;;;;;17.80;11.27;;;;;;;-0.69;100.00;92667.19;4991288;28;20452;-83
2022/03/07 01:33:49;;;;;;;18.77;11.70;;;;;;;-0.64;100.00;92669.22;4991426;28;20109;-84
2022/03/07 01:36:16;;;;;;;17.45;11.77;;;;;;;-0.54;100.00;92669.88;4991072;28;20055;-83
2022/03/07 01:38:43;;;;;;;17.63;11.60;;;;;;;-0.59;100.00;92660.28;4991218;28;20097;-84
2022/03/07 01:41:10;;;;;;;16.67;10.30;;;;;;;-0.42;100.00;92668.63;4991104;28;20065;-83
2022/03/07 01:43:37;;;;;;;16.40;10.07;;;;;;;-0.31;100.00;92671.81;4990908;28;20053;-83
2022/03/07 01:46:04;;;;;;;23.08;12.50;;;;;;;-0.28;100.00;92679.03;4991149;28;20535;-84
2022/03/07 01:48:31;;;;;;;22.23;11.38;;;;;;;-0.22;100.00;92665.03;4988131;28;20058;-84
2022/03/07 01:50:59;;;;;;;17.77;9.60;;;;;;;-0.13;100.00;92674.19;4971502;28;20051;-83
2022/03/07 01:53:26;;;;;;;15.35;8.13;;;;;;;-0.15;100.00;92671.00;4972588;28;20099;-84
2022/03/07 01:55:53;;;;;;;12.65;7.40;;;;;;;-0.24;100.00;92657.59;4975090;28;20126;-83
2022/03/07 01:58:19;;;;;;;14.45;8.40;;;;;;;-0.16;100.00;92670.25;4975380;28;20109;-83
2022/03/07 02:00:47;;;;;;;14.02;8.35;;;;;;;-0.32;100.00;92671.00;4975278;28;20051;-83
2022/03/07 02:03:14;;;;;;;16.77;8.93;;;;;;;-0.43;100.00;92664.53;4975168;28;20485;-83
2022/03/07 02:05:41;;;;;;;15.40;8.60;;;;;;;-0.37;100.00;92677.47;4975098;28;20051;-83
2022/03/07 02:08:09;;;;;;;14.95;8.32;;;;;;;-0.48;100.00;92674.31;4974968;28;20047;-84
2022/03/07 02:10:38;;;;;;;14.35;9.30;;;;;;;-0.54;100.00;92672.41;4974707;28;20058;-83
2022/03/07 02:13:11;;;;;;;17.55;9.52;;;;;;;-0.70;100.00;92673.16;4979922;28;20058;-83
2022/03/07 02:15:38;;;;;;;16.23;9.98;;;;;;;-0.58;100.00;92671.94;4994335;28;20101;-83
2022/03/07 02:18:05;;;;;;;18.50;10.75;;;;;;;-0.55;100.00;92669.09;4984527;28;20058;-83
2022/03/07 02:20:32;;;;;;;16.23;9.65;;;;;;;-0.52;100.00;92668.00;4994297;28;20066;-83
2022/03/07 02:23:00;;;;;;;14.48;8.88;;;;;;;-0.48;100.00;92674.31;4994026;28;20460;-84
2022/03/07 02:25:27;;;;;;;17.70;9.73;;;;;;;-0.69;100.00;92667.19;4994071;28;20119;-83
2022/03/07 02:27:54;;;;;;;15.13;8.63;;;;;;;-0.60;100.00;92673.03;4997319;28;20061;-83
2022/03/07 02:30:20;;;;;;;15.75;10.00;;;;;;;-0.63;100.00;92671.59;4993518;28;20054;-85
2022/03/07 02:32:47;;;;;;;14.93;8.98;;;;;;;-0.72;100.00;92675.03;4993527;28;20066;-84
2022/03/07 02:35:14;;;;;;;15.05;9.13;;;;;;;-0.71;100.00;92684.19;4993784;28;20050;-84
2022/03/07 02:37:42;;;;;;;18.65;9.65;;;;;;;-0.65;100.00;92677.75;4993020;28;20069;-83
2022/03/07 02:40:11;;;;;;;17.45;10.25;;;;;;;-0.59;100.00;92680.44;4993222;28;20470;-83
2022/03/07 02:42:38;;;;;;;15.90;9.73;;;;;;;-0.58;100.00;92668.59;4993084;28;20052;-83
2022/03/07 02:45:06;;;;;;;17.00;10.13;;;;;;;-0.52;100.00;92677.31;4993571;28;20050;-83
2022/03/07 02:47:33;;;;;;;14.82;8.98;;;;;;;-0.42;100.00;92676.22;4993604;28;20792;-83
2022/03/07 02:50:00;;;;;;;16.90;9.80;;;;;;;-0.41;100.00;92685.34;4993530;28;20065;-84
2022/03/07 02:52:27;;;;;;;21.67;11.50;;;;;;;-0.51;100.00;92686.44;4993751;28;20046;-83
2022/03/07 02:54:54;;;;;;;18.67;9.43;;;;;;;-0.47;100.00;92685.19;4993670;28;20050;-83
2022/03/07 02:57:23;;;;;;;17.63;9.93;;;;;;;-0.56;100.00;92675.06;4993365;28;20058;-83
2022/03/07 02:59:50;;;;;;;19.05;10.27;;;;;;;-0.41;100.00;92677.78;4993361;28;20093;-84
2022/03/07 03:02:16;;;;;;;15.40;8.48;;;;;;;-0.44;100.00;92680.63;4993449;28;20050;-83
2022/03/07 03:04:43;;;;;;;17.52;10.70;;;;;;;-0.91;100.00;92645.84;4992791;28;20050;-84
2022/03/07 03:07:10;;;;;;;19.88;11.00;;;;;;;-0.63;100.00;92686.75;4993440;28;20062;-83
2022/03/07 03:09:37;;;;;;;17.75;10.23;;;;;;;-0.68;100.00;92663.72;4993231;28;20516;-83
2022/03/07 03:12:04;;;;;;;19.70;10.77;;;;;;;-0.60;100.00;92688.94;4993186;28;20543;-83
2022/03/07 03:14:32;;;;;;;16.08;10.10;;;;;;;-0.69;100.00;92682.31;4976504;28;20050;-83
2022/03/07 03:16:59;;;;;;;16.92;9.07;;;;;;;-0.73;100.00;92686.88;4973565;28;20054;-83
2022/03/07 03:19:26;;;;;;;16.02;9.63;;;;;;;-0.76;100.00;92684.66;4973591;28;20081;-83
2022/03/07 03:21:53;;;;;;;18.23;10.20;;;;;;;-0.73;100.00;92678.50;4973493;28;20573;-83
2022/03/07 03:24:20;;;;;;;20.98;11.90;;;;;;;-0.64;100.00;92687.69;4973472;28;20058;-83
2022/03/07 03:26:46;;;;;;;16.23;9.73;;;;;;;-0.70;100.00;92690.81;4973801;28;20059;-83
2022/03/07 03:29:13;;;;;;;21.27;11.70;;;;;;;-0.84;100.00;92669.47;4973493;28;20043;-83
2022/03/07 03:31:41;;;;;;;24.95;14.48;;;;;;;-0.80;100.00;92688.41;4973494;28;20433;-83
2022/03/07 03:34:09;;;;;;;23.35;14.13;;;;;;;-0.83;100.00;92687.00;4973230;28;20433;-82
2022/03/07 03:36:35;;;;;;;22.25;12.52;;;;;;;-0.93;100.00;92690.59;4973281;28;20054;-83
2022/03/07 03:39:02;;;;;;;21.55;13.20;;;;;;;-0.98;100.00;92686.78;4973255;28;20050;-84
2022/03/07 03:41:29;;;;;;;18.80;11.35;;;;;;;-0.93;100.00;92688.84;4973304;28;20062;-83
2022/03/07 03:43:56;;;;;;;23.58;13.98;;;;;;;-0.87;100.00;92692.50;4973235;28;20062;-83
2022/03/07 03:46:23;;;;;;;20.13;11.55;;;;;;;-0.87;100.00;92682.41;4972957;28;20094;-83
2022/03/07 03:48:51;;;;;;;15.35;9.88;;;;;;;-0.81;100.00;92682.59;4973357;28;20047;-83
2022/03/07 03:51:18;;;;;;;16.30;10.55;;;;;;;-0.82;100.00;92686.03;4972938;28;20110;-83
2022/03/07 03:53:44;;;;;;;16.20;10.23;;;;;;;-0.76;100.00;92688.91;4973078;28;20391;-83
2022/03/07 03:56:11;;;;;;;17.55;10.07;;;;;;;-0.77;100.00;92680.56;4972929;28;20541;-83
2022/03/07 03:58:38;;;;;;;18.13;10.80;;;;;;;-0.61;100.00;92689.88;4973367;28;20548;-83
2022/03/07 04:01:05;;;;;;;17.85;10.40;;;;;;;-0.49;100.00;92697.97;4972761;28;20093;-83
2022/03/07 04:03:31;;;;;;;15.60;9.85;;;;;;;-0.45;100.00;92701.75;4972914;28;20117;-83
2022/03/07 04:05:59;;;;;;;16.10;10.10;;;;;;;-0.40;100.00;92701.28;4972757;28;20097;-83
2022/03/07 04:08:31;;;;;;;18.10;10.20;;;;;;;-0.57;100.00;92683.59;4972683;28;20039;-83
2022/03/07 04:10:58;;;;;;;17.88;10.90;;;;;;;-0.37;100.00;92698.44;4972741;28;20053;-83
2022/03/07 04:13:25;;;;;;;20.55;12.75;;;;;;;-0.57;100.00;92701.25;4972539;28;20061;-85
2022/03/07 04:15:52;;;;;;;17.60;10.93;;;;;;;-0.47;100.00;92697.81;4971913;28;20051;-83
2022/03/07 04:18:18;;;;;;;16.38;10.48;;;;;;;-0.53;100.00;92694.16;4972752;28;20109;-83
2022/03/07 04:20:45;;;;;;;19.13;11.70;;;;;;;-0.44;100.00;92695.78;4972693;28;20058;-83
2022/03/07 04:23:15;;;;;;;20.73;12.77;;;;;;;-0.39;100.00;92695.28;4972639;28;20054;-83
2022/03/07 04:25:42;;;;;;;17.80;11.35;;;;;;;-0.29;100.00;92695.94;4972399;28;20054;-83
2022/03/07 04:28:09;;;;;;;19.13;11.55;;;;;;;-0.40;100.00;92701.28;4972226;28;20059;-83
2022/03/07 04:30:35;;;;;;;18.48;11.55;;;;;;;-0.40;100.00;92701.28;4972565;28;20502;-83
2022/03/07 04:33:02;;;;;;;33.90;17.08;;;;;;;-0.50;100.00;92698.91;4972623;28;20054;-83
2022/03/07 04:35:29;;;;;;;19.70;12.07;;;;;;;-0.57;100.00;92691.16;4972445;28;20051;-83
2022/03/07 04:37:56;;;;;;;19.58;11.43;;;;;;;-0.61;100.00;92699.22;4972288;28;20057;-83
2022/03/07 04:40:24;;;;;;;19.38;12.57;;;;;;;-0.72;100.00;92696.03;4972203;28;20419;-84
2022/03/07 04:42:52;;;;;;;21.98;12.57;;;;;;;-0.59;100.00;92693.06;4972689;28;20454;-83
2022/03/07 04:45:19;;;;;;;18.25;11.38;;;;;;;-0.63;100.00;92685.94;4972580;28;20418;-83
2022/03/07 04:47:46;;;;;;;29.70;17.70;;;;;;;-0.55;100.00;92684.22;4972077;28;20051;-83
2022/03/07 04:50:13;;;;;;;24.48;14.55;;;;;;;-0.55;100.00;92691.78;4972631;28;20051;-85
2022/03/07 04:52:41;;;;;;;24.83;14.23;;;;;;;-0.60;100.00;92683.13;4972185;28;20141;-83
2022/03/07 04:55:09;;;;;;;23.55;15.05;;;;;;;-0.44;100.00;92685.69;4972047;28;20066;-83
2022/03/07 04:57:38;;;;;;;21.75;12.43;;;;;;;-0.47;100.00;92690.25;4972151;28;20055;-83
2022/03/07 05:00:06;;;;;;;21.45;12.07;;;;;;;-0.52;100.00;92688.16;4971971;28;20063;-82
2022/03/07 05:02:33;;;;;;;21.05;11.80;;;;;;;-0.56;100.00;92689.41;4971951;28;20050;-83
2022/03/07 05:05:01;;;;;;;29.60;15.43;;;;;;;-0.60;100.00;92678.06;4972139;28;20117;-83
2022/03/07 05:07:27;;;;;;;19.08;11.57;;;;;;;-0.53;100.00;92684.06;4971841;28;20054;-84
2022/03/07 05:09:54;;;;;;;26.10;12.38;;;;;;;-0.66;100.00;92683.75;4971849;28;20102;-82
2022/03/07 05:12:21;;;;;;;39.60;20.45;;;;;;;-0.77;100.00;92685.59;4971952;28;20050;-83
2022/03/07 05:14:49;;;;;;;24.25;13.43;;;;;;;-0.97;100.00;92678.28;4972124;28;20517;-82
2022/03/07 05:17:16;;;;;;;28.15;17.20;;;;;;;-0.90;100.00;92688.56;4971767;28;20508;-83
2022/03/07 05:19:45;;;;;;;29.38;13.77;;;;;;;-0.82;100.00;92687.78;4971860;28;20042;-82
2022/03/07 05:22:11;;;;;;;23.38;13.73;;;;;;;-0.93;100.00;92685.56;4971781;28;20520;-83
2022/03/07 05:24:38;;;;;;;22.95;14.40;;;;;;;-1.01;100.00;92681.25;4971949;28;20051;-84
2022/03/07 05:27:05;;;;;;;28.88;16.77;;;;;;;-0.74;100.00;92692.06;4972197;28;20051;-82
2022/03/07 05:29:32;;;;;;;28.42;14.00;;;;;;;-0.69;100.00;92687.34;4975582;28;20564;-83
2022/03/07 05:32:01;;;;;;;20.30;11.32;;;;;;;-0.81;100.00;92675.03;4975744;28;20051;-83
2022/03/07 05:34:27;;;;;;;80.85;40.67;;;;;;;-0.73;100.00;92688.59;4975587;28;20046;-83
2022/03/07 05:36:54;;;;;;;210.32;89.45;;;;;;;-0.72;100.00;92688.47;4975297;28;20055;-83
2022/03/07 05:39:21;;;;;;;40.47;21.77;;;;;;;-0.65;100.00;92692.88;4975437;28;20050;-83
2022/03/07 05:41:48;;;;;;;23.60;14.95;;;;;;;-0.57;100.00;92696.22;4975336;28;20062;-83
2022/03/07 05:44:15;;;;;;;19.25;12.77;;;;;;;-0.65;100.00;92701.22;4975346;28;20047;-83
2022/03/07 05:46:42;;;;;;;18.90;12.10;;;;;;;-0.92;100.00;92666.94;4975436;28;20050;-83
2022/03/07 05:49:10;;;;;;;23.88;15.98;;;;;;;-0.75;100.00;92693.03;4975200;28;20058;-84
2022/03/07 05:51:36;;;;;;;26.95;18.55;;;;;;;-0.73;100.00;92693.66;4975112;28;20093;-83
2022/03/07 05:54:05;;;;;;;21.20;14.23;;;;;;;-0.78;100.00;92686.56;4975186;28;20062;-83
2022/03/07 05:56:32;;;;;;;24.65;17.05;;;;;;;-0.59;100.00;92687.22;4975405;28;20072;-83
2022/03/07 05:58:59;;;;;;;22.83;15.25;;;;;;;-0.30;100.00;92694.38;4975114;28;20047;-83
2022/03/07 06:01:25;;;;;;;25.33;16.23;;;;;;;-0.34;100.00;92699.88;4975126;28;20051;-83
2022/03/07 06:03:52;;;;;;;18.40;13.07;;;;;;;-0.23;100.00;92697.03;4974838;28;20050;-83
2022/03/07 06:06:20;;;;;;;22.40;14.23;;;;;;;-0.29;100.00;92670.72;4974966;28;20055;-83
2022/03/07 06:08:47;;;;;;;19.08;14.60;;;;;;;0.01;100.00;92682.06;4974805;28;20101;-83
2022/03/07 06:11:15;;;;;;;42.83;24.42;;;;;;;0.07;100.00;92672.13;4974932;28;20499;-83
2022/03/07 06:13:42;;;;;;;19.90;12.65;;;;;;;0.27;100.00;92699.56;4974849;28;20058;-84
2022/03/07 06:16:09;;;;;;;14.57;9.63;;;;;;;0.11;100.00;92692.81;4974809;28;20077;-83
2022/03/07 06:18:36;;;;;;;11.90;7.00;;;;;;;0.05;100.00;92695.97;4974602;28;20053;-83
2022/03/07 06:21:03;;;;;;;13.43;7.93;;;;;;;-0.03;100.00;92691.69;4974877;28;20197;-83
2022/03/07 06:23:31;;;;;;;11.77;7.30;;;;;;;-0.38;100.00;92696.88;4974657;28;20130;-83
2022/03/07 06:25:58;;;;;;;7.32;5.15;;;;;;;-0.42;100.00;92700.63;4974597;28;20083;-83
2022/03/07 06:28:25;;;;;;;14.05;8.38;;;;;;;-0.45;100.00;92698.44;4974530;28;20462;-83
2022/03/07 06:30:51;;;;;;;13.55;9.35;;;;;;;-0.47;100.00;92687.72;4974520;28;20054;-83
2022/03/07 06:33:19;;;;;;;12.30;7.25;;;;;;;-0.45;100.00;92704.28;4973075;28;20053;-83
2022/03/07 06:35:46;;;;;;;16.27;9.60;;;;;;;-0.59;100.00;92690.53;4974087;28;20051;-83
2022/03/07 06:38:13;;;;;;;23.33;14.52;;;;;;;-0.77;100.00;92699.94;4974558;28;20050;-82
2022/03/07 06:40:42;;;;;;;12.82;8.27;;;;;;;-0.87;100.00;92685.75;4973722;28;20047;-82
2022/03/07 06:43:08;;;;;;;16.90;10.85;;;;;;;-0.86;100.00;92686.50;4974384;28;20098;-82
2022/03/07 06:45:35;;;;;;;16.73;10.70;;;;;;;-0.88;100.00;92701.78;4974139;28;20490;-82
2022/03/07 06:48:02;;;;;;;12.25;8.57;;;;;;;-0.86;100.00;92702.44;4974436;28;20055;-82
2022/03/07 06:50:29;;;;;;;21.08;13.52;;;;;;;-0.89;100.00;92691.88;4974095;28;20046;-83
2022/03/07 06:52:56;;;;;;;14.70;10.07;;;;;;;-0.77;100.00;92693.16;4974527;28;20370;-82
2022/03/07 06:55:24;;;;;;;17.45;10.55;;;;;;;-0.75;100.00;92683.72;4974224;28;20059;-82
2022/03/07 06:57:52;;;;;;;25.50;13.75;;;;;;;-0.64;100.00;92681.84;4974015;28;20509;-82
2022/03/07 07:00:20;;;;;;;28.35;16.27;;;;;;;-0.35;100.00;92703.34;4974006;28;20355;-82
2022/03/07 07:02:47;;;;;;;18.70;11.23;;;;;;;-0.10;100.00;92700.84;4974172;28;20047;-82
2022/03/07 07:05:15;;;;;;;31.40;18.17;;;;;;;0.03;100.00;92706.22;4974004;28;20086;-82
2022/03/07 07:07:43;;;;;;;19.05;13.07;;;;;;;0.29;100.00;92707.00;4980057;28;20065;-81
2022/03/07 07:10:10;;;;;;;16.77;12.00;;;;;;;0.42;100.00;92704.78;4973618;28;20055;-82
2022/03/07 07:12:37;;;;;;;32.47;17.73;;;;;;;0.24;100.00;92710.00;4974878;28;20055;-81
2022/03/07 07:15:07;;;;;;;22.85;13.73;;;;;;;0.16;100.00;92702.41;4993443;28;20053;-81
2022/03/07 07:17:34;;;;;;;18.42;10.75;;;;;;;0.07;100.00;92712.53;4993312;28;20468;-81
2022/03/07 07:20:01;;;;;;;16.30;10.98;;;;;;;-0.03;100.00;92722.00;4993035;28;20564;-82
2022/03/07 07:22:27;;;;;;;13.88;9.82;;;;;;;-0.12;100.00;92721.22;4993147;28;20148;-81
2022/03/07 07:24:54;;;;;;;16.75;11.05;;;;;;;-0.03;100.00;92719.47;4992954;28;20519;-82
2022/03/07 07:27:21;;;;;;;22.65;16.45;;;;;;;-0.04;100.00;92720.44;4992905;28;20061;-82
2022/03/07 07:29:48;;;;;;;16.65;12.43;;;;;;;-0.01;100.00;92723.41;4993024;28;20058;-82
2022/03/07 07:32:16;;;;;;;26.67;17.45;;;;;;;0.11;100.00;92721.38;4992897;28;20058;-82
2022/03/07 07:34:43;;;;;;;24.42;16.90;;;;;;;0.14;100.00;92730.38;4992835;28;20492;-82
2022/03/07 07:37:10;;;;;;;37.30;27.63;;;;;;;0.02;100.00;92724.84;4992818;28;20046;-82
2022/03/07 07:39:37;;;;;;;30.40;21.92;;;;;;;-0.09;100.00;92733.50;4992670;28;20042;-83
2022/03/07 07:42:05;;;;;;;20.50;14.40;;;;;;;-0.19;100.00;92728.59;4992627;28;20055;-83
2022/03/07 07:44:31;;;;;;;29.10;20.85;;;;;;;-0.17;100.00;92738.56;4992586;28;20543;-84
2022/03/07 07:46:58;;;;;;;27.00;16.60;;;;;;;-0.55;100.00;92728.84;4992288;28;20050;-84
2022/03/07 07:49:27;;;;;;;25.30;16.63;;;;;;;-0.41;100.00;92733.28;4991717;28;20054;-84
2022/03/07 07:51:54;;;;;;;26.02;17.35;;;;;;;-0.60;100.00;92726.78;4990831;28;20058;-84
2022/03/07 07:54:21;;;;;;;30.67;19.42;;;;;;;-0.75;100.00;92738.41;4991650;28;20043;-84
2022/03/07 07:56:48;;;;;;;34.35;23.92;;;;;;;-0.79;100.00;92730.34;4991424;28;20050;-84
2022/03/07 07:59:14;;;;;;;26.63;17.25;;;;;;;-0.89;100.00;92740.56;4990408;28;20058;-84
2022/03/07 08:01:41;;;;;;;27.90;19.23;;;;;;;-0.90;100.00;92741.50;4990955;28;20060;-85
2022/03/07 08:04:08;;;;;;;24.92;18.88;;;;;;;-0.83;100.00;92729.09;4991198;28;20061;-84
2022/03/07 08:06:36;;;;;;;27.65;20.05;;;;;;;-0.57;100.00;92741.63;4986860;28;20535;-83
2022/03/07 08:09:04;;;;;;;24.70;20.17;;;;;;;-0.67;100.00;92740.97;4992414;28;20444;-84
2022/03/07 08:11:30;;;;;;;29.95;21.50;;;;;;;-0.55;100.00;92741.47;4992147;28;20101;-84
2022/03/07 08:13:57;;;;;;;26.45;18.02;;;;;;;-0.58;100.00;92736.72;4991950;28;20097;-84
2022/03/07 08:16:25;;;;;;;24.40;18.05;;;;;;;-0.47;100.00;92744.00;4992037;28;20050;-84
2022/03/07 08:18:51;;;;;;;31.58;22.80;;;;;;;-0.37;100.00;92740.56;4991991;28;20054;-84
2022/03/07 08:21:21;;;;;;;27.67;20.23;;;;;;;-0.28;100.00;92740.44;4991664;28;20492;-85
2022/03/07 08:23:49;;;;;;;25.30;17.45;;;;;;;-0.25;100.00;92746.09;4992271;28;20046;-84
2022/03/07 08:26:16;;;;;;;29.25;19.42;;;;;;;-0.17;100.00;92753.69;4991882;28;20057;-84
2022/03/07 08:28:43;;;;;;;29.25;20.13;;;;;;;-0.13;100.00;92754.97;4991751;28;20054;-84
2022/03/07 08:31:10;;;;;;;34.80;22.70;;;;;;;-0.27;100.00;92743.75;4991766;28;20129;-84
2022/03/07 08:33:36;;;;;;;41.88;25.15;;;;;;;-0.23;100.00;92749.28;4991807;28;20497;-83
2022/03/07 08:36:04;;;;;;;28.23;20.95;;;;;;;-0.11;100.00;92744.69;4991629;28;20050;-84
2022/03/07 08:38:31;;;;;;;26.48;20.23;;;;;;;-0.05;100.00;92744.09;4991849;28;20050;-83
2022/03/07 08:41:01;;;;;;;28.45;21.00;;;;;;;-0.36;100.00;92749.72;4991663;28;20535;-84
2022/03/07 08:43:28;;;;;;;27.90;19.58;;;;;;;-0.33;100.00;92750.19;4991723;28;20109;-84
2022/03/07 08:45:55;;;;;;;25.48;17.73;;;;;;;-0.21;100.00;92747.38;4991674;28;20046;-84
2022/03/07 08:48:22;;;;;;;24.40;17.83;;;;;;;-0.32;100.00;92744.19;4991537;28;20050;-84
2022/03/07 08:50:49;;;;;;;22.38;16.08;;;;;;;-0.39;100.00;92748.28;4991450;28;20053;-83
2022/03/07 08:53:17;;;;;;;24.25;16.75;;;;;;;-0.45;100.00;92734.56;4991464;28;20481;-83
2022/03/07 08:55:44;;;;;;;21.73;16.33;;;;;;;-0.73;100.00;92707.06;4991476;28;20054;-83
2022/03/07 08:58:12;;;;;;;26.00;17.80;;;;;;;-0.52;100.00;92746.19;4991516;28;20102;-84
2022/03/07 09:00:39;;;;;;;33.65;25.58;;;;;;;-0.64;100.00;92723.00;4991561;28;20097;-83
2022/03/07 09:03:06;;;;;;;24.92;18.27;;;;;;;-0.64;100.00;92749.94;4990923;28;20104;-84
2022/03/07 09:05:35;;;;;;;28.17;18.52;;;;;;;-0.47;100.00;92751.56;4991352;28;20484;-84
2022/03/07 09:08:02;;;;;;;27.52;18.08;;;;;;;-0.47;100.00;92748.28;4991530;28;20054;-84
2022/03/07 09:10:29;;;;;;;36.15;21.85;;;;;;;-0.40;100.00;92746.72;4991414;28;20497;-84
2022/03/07 09:12:56;;;;;;;32.50;20.20;;;;;;;-0.49;100.00;92737.53;4991393;28;20451;-84
2022/03/07 09:15:24;;;;;;;32.30;20.77;;;;;;;-0.30;100.00;92751.63;4991326;28;20095;-84
2022/03/07 09:17:51;;;;;;;38.22;24.58;;;;;;;-0.22;100.00;92748.31;4991250;28;20046;-83
2022/03/07 09:20:19;;;;;;;29.48;19.77;;;;;;;-0.48;100.00;92744.16;4991328;28;20133;-81
2022/03/07 09:22:46;;;;;;;33.22;22.02;;;;;;;-0.28;100.00;92747.19;4991283;28;20062;-81
2022/03/07 09:25:13;;;;;;;33.20;22.08;;;;;;;-0.39;100.00;92742.44;4991258;28;20563;-81
2022/03/07 09:27:42;;;;;;;36.22;22.30;;;;;;;-0.36;100.00;92727.00;4991316;28;20055;-82
2022/03/07 09:30:11;;;;;;;30.48;20.08;;;;;;;-0.19;100.00;92727.84;4990946;28;20050;-81
2022/03/07 09:32:39;;;;;;;28.77;19.42;;;;;;;-0.03;100.00;92745.53;4991191;28;20054;-82
2022/03/07 09:35:06;;;;;;;28.38;19.45;;;;;;;0.25;100.00;92742.69;4991279;28;20101;-81
2022/03/07 09:37:34;;;;;;;25.75;18.65;;;;;;;0.07;100.00;92745.38;4991337;28;20090;-81
2022/03/07 09:40:00;;;;;;;26.05;17.67;;;;;;;0.05;100.00;92747.25;4991111;28;20073;-81
2022/03/07 09:42:27;;;;;;;24.17;17.30;;;;;;;0.04;100.00;92745.66;4991186;28;20100;-82
2022/03/07 09:44:54;;;;;;;27.38;17.58;;;;;;;0.37;100.00;92749.97;4990988;28;20054;-81
2022/03/07 09:47:22;;;;;;;25.02;17.48;;;;;;;0.33;100.00;92734.31;4991262;28;20097;-81
2022/03/07 09:49:51;;;;;;;19.73;14.18;;;;;;;0.13;100.00;92741.41;4991153;28;20054;-81
2022/03/07 09:52:18;;;;;;;25.67;18.55;;;;;;;0.35;100.00;92744.25;4990972;28;20501;-81
2022/03/07 09:54:45;;;;;;;23.63;16.20;;;;;;;0.52;100.00;92730.66;4991022;28;20105;-82
2022/03/07 09:57:12;;;;;;;27.33;19.65;;;;;;;0.89;100.00;92751.28;4990856;28;20058;-82
2022/03/07 09:59:39;;;;;;;36.30;24.75;;;;;;;1.13;100.00;92746.34;4990860;28;20050;-81
2022/03/07 10:02:09;;;;;;;61.05;34.70;;;;;;;1.30;100.00;92740.25;4991146;28;20054;-82
2022/03/07 10:04:40;;;;;;;33.13;22.05;;;;;;;1.48;100.00;92744.28;4990827;28;20046;-82
2022/03/07 10:07:08;;;;;;;39.08;24.55;;;;;;;1.51;100.00;92741.44;4990921;28;20047;-82
2022/03/07 10:09:35;;;;;;;20.15;15.18;;;;;;;1.37;100.00;92750.53;4990679;28;20054;-82
2022/03/07 10:12:03;;;;;;;21.52;15.70;;;;;;;1.50;100.00;92742.41;4990844;28;20485;-81
2022/03/07 10:14:41;;;;;;;22.23;15.73;;;;;;;1.62;100.00;92747.09;4992012;28;20084;-81
2022/03/07 10:17:18;;;;;;;23.70;15.13;;;;;;;1.41;100.00;92736.59;4994462;28;20073;-83
2022/03/07 10:19:45;;;;;;;22.48;15.52;;;;;;;1.11;100.00;92746.50;4994412;28;20058;-82
2022/03/07 10:22:21;;;;;;;18.27;13.68;;;;;;;0.64;100.00;92740.44;4994070;28;20051;-82
2022/03/07 10:24:57;;;;;;;27.98;20.92;;;;;;;0.82;100.00;92740.25;4994295;28;20042;-83
2022/03/07 10:27:27;;;;;;;;;;;;;;;0.89;100.00;92731.06;4994759;28;20054;-82
2022/03/07 10:29:54;;;;;;;28.20;18.48;;;;;;;0.93;100.00;92731.53;4993937;28;20367;-82
2022/03/07 10:32:21;;;;;;;26.50;17.80;;;;;;;1.01;100.00;92725.66;4994023;28;20065;-82
2022/03/07 10:34:48;;;;;;;31.23;20.55;;;;;;;1.06;100.00;92733.53;4993836;28;20428;-83
2022/03/07 10:37:16;;;;;;;29.45;19.52;;;;;;;1.03;100.00;92716.19;4994129;28;20054;-83
2022/03/07 10:39:48;;;;;;;32.10;22.92;;;;;;;1.36;100.00;92725.38;4993869;28;20100;-83
2022/03/07 10:42:18;;;;;;;38.33;24.52;;;;;;;1.46;100.00;92731.03;4993629;28;20492;-82
2022/03/07 10:44:46;;;;;;;32.33;23.50;;;;;;;1.51;100.00;92725.44;4993992;28;20109;-83
2022/03/07 10:47:16;;;;;;;32.33;20.02;;;;;;;1.21;100.00;92731.13;4993727;28;20050;-83
2022/03/07 10:49:51;;;;;;;33.65;22.98;;;;;;;1.24;100.00;92723.19;4993636;28;20089;-83
2022/03/07 10:52:20;;;;;;;27.95;18.58;;;;;;;0.80;100.00;92712.59;4993636;28;20050;-83
2022/03/07 10:54:49;;;;;;;29.42;19.80;;;;;;;0.60;100.00;92716.44;4993596;28;20046;-84
2022/03/07 10:57:17;;;;;;;33.60;22.30;;;;;;;0.95;100.00;92729.63;4993683;28;20050;-83
2022/03/07 10:59:46;;;;;;;37.13;24.05;;;;;;;1.17;100.00;92728.13;4993336;28;20049;-84
2022/03/07 11:02:16;;;;;;;41.33;25.55;;;;;;;1.20;100.00;92724.47;4993602;28;20054;-84
2022/03/07 11:04:44;;;;;;;35.08;22.05;;;;;;;1.23;100.00;92730.94;4993350;28;20403;-84
2022/03/07 11:07:12;;;;;;;36.22;23.30;;;;;;;1.38;100.00;92724.25;4993530;28;20057;-84
2022/03/07 11:09:41;;;;;;;30.05;20.38;;;;;;;1.42;100.00;92717.13;4993805;28;20050;-85
2022/03/07 11:12:12;;;;;;;33.78;22.15;;;;;;;1.51;100.00;92723.72;4993096;28;20054;-84